Time;durP1;ratioP1;P1;durP2;ratioP2;P2;SDS_P1;SDS_P2;PMS_P1;PMS_P2;Temp;Humidity;BMP_temperature;BMP_pressure;BME280_temperature;BME280_humidity;BME280_pressure;Samples;Min_cycle;Max_cycle;Signal;HPM_P1;HPM_P2
2022/11/16 00:01:52;;;;;;;22.45;17.75;;;;;;;7.60;70.43;98770.64;1786156;80;21028;-40
2022/11/16 00:04:19;;;;;;;19.40;15.85;;;;;;;7.59;70.47;98768.51;1786249;80;21044;-40
2022/11/16 00:06:48;;;;;;;19.77;16.27;;;;;;;7.64;70.39;98766.09;1786173;80;21016;-40
2022/11/16 00:09:21;;;;;;;22.10;17.75;;;;;;;7.68;70.29;98757.50;1786650;80;21095;-40
2022/11/16 00:11:52;;;;;;;23.55;17.65;;;;;;;7.66;70.39;98764.59;1786043;80;20972;-40
2022/11/16 00:14:20;;;;;;;23.35;16.97;;;;;;;7.63;70.46;98761.27;1786497;80;21521;-40
2022/11/16 00:16:47;;;;;;;23.30;18.05;;;;;;;7.61;70.48;98756.78;1786074;80;21010;-40
2022/11/16 00:19:14;;;;;;;24.35;17.27;;;;;;;7.55;70.55;98757.43;1786140;80;20991;-40
2022/11/16 00:21:40;;;;;;;21.80;16.40;;;;;;;7.49;70.64;98757.48;1786181;80;21012;-40
2022/11/16 00:24:14;;;;;;;22.75;16.27;;;;;;;7.53;70.71;98755.64;1769710;80;21232;-40
2022/11/16 00:26:42;;;;;;;22.95;17.80;;;;;;;7.61;70.71;98755.99;1769510;81;20882;-40
2022/11/16 00:29:19;;;;;;;27.58;17.87;;;;;;;7.63;70.52;98745.64;1769757;81;21008;-40
2022/11/16 00:31:47;;;;;;;22.30;16.85;;;;;;;7.59;70.49;98743.44;1770235;80;20997;-40
2022/11/16 00:34:14;;;;;;;23.20;16.65;;;;;;;7.57;70.60;98742.44;1751691;81;21549;-40
2022/11/16 00:36:42;;;;;;;22.62;17.02;;;;;;;7.54;70.67;98738.33;1775256;80;21095;-40
2022/11/16 00:39:13;;;;;;;18.82;14.50;;;;;;;7.50;70.77;98733.44;1751564;82;21496;-40
2022/11/16 00:41:41;;;;;;;21.52;15.65;;;;;;;7.51;70.79;98733.06;1775100;80;20997;-40
2022/11/16 00:44:09;;;;;;;21.62;16.42;;;;;;;7.51;70.89;98728.23;1751714;82;20978;-40
2022/11/16 00:46:37;;;;;;;22.55;17.12;;;;;;;7.50;71.07;98719.95;1748059;82;20969;-40
2022/11/16 00:49:04;;;;;;;23.95;17.42;;;;;;;7.52;71.04;98719.80;1814091;79;21374;-40
2022/11/16 00:51:33;;;;;;;27.10;17.67;;;;;;;7.52;71.02;98714.97;1813910;78;20914;-40
2022/11/16 00:54:00;;;;;;;22.30;16.20;;;;;;;7.53;71.07;98715.19;1775410;80;20980;-40
2022/11/16 00:56:28;;;;;;;19.73;16.05;;;;;;;7.54;70.98;98709.45;1781125;80;20965;-40
2022/11/16 00:58:56;;;;;;;21.50;15.72;;;;;;;7.61;70.94;98712.83;1781377;80;21121;-40
2022/11/16 01:01:24;;;;;;;21.55;17.00;;;;;;;7.68;70.80;98706.24;1781131;80;21004;-40
2022/11/16 01:03:51;;;;;;;22.80;17.20;;;;;;;7.68;70.80;98705.68;1781183;80;21020;-40
2022/11/16 01:06:19;;;;;;;24.12;18.07;;;;;;;7.67;70.67;98704.11;1781171;80;21009;-40
2022/11/16 01:08:46;;;;;;;26.20;18.57;;;;;;;7.61;70.72;98700.13;1781161;80;21553;-40
2022/11/16 01:14:06;;;;;;;22.37;16.87;;;;;;;7.57;71.25;98695.23;1748819;82;23109;-40
2022/11/16 01:16:35;;;;;;;24.40;17.27;;;;;;;7.62;71.29;98698.22;1781363;80;20981;-40
2022/11/16 01:19:02;;;;;;;24.43;18.27;;;;;;;7.65;71.41;98697.52;1781245;80;20973;-40
2022/11/16 01:21:29;;;;;;;26.52;17.87;;;;;;;7.65;71.17;98686.14;1781200;80;21507;-40
2022/11/16 01:23:56;;;;;;;24.37;17.00;;;;;;;7.65;71.20;98690.19;1781115;80;21586;-40
2022/11/16 01:26:23;;;;;;;23.15;15.70;;;;;;;7.63;71.18;98687.64;1748763;82;23116;-40
2022/11/16 01:28:51;;;;;;;23.52;16.23;;;;;;;7.62;71.20;98696.87;1748839;82;20997;-40
2022/11/16 01:31:18;;;;;;;21.85;16.30;;;;;;;7.64;71.23;98688.64;1781408;80;21072;-40
2022/11/16 01:33:46;;;;;;;25.32;17.37;;;;;;;7.65;71.26;98689.43;1799325;79;21470;-40
2022/11/16 01:36:15;;;;;;;23.25;17.10;;;;;;;7.61;71.45;98683.95;1803745;79;21072;-40
2022/11/16 01:38:44;;;;;;;23.92;17.65;;;;;;;7.59;71.54;98682.75;1804603;79;21229;-40
2022/11/16 01:41:14;;;;;;;;;;;;;;;7.59;71.65;98682.75;1807222;79;20917;-40
2022/11/16 01:44:06;;;;;;;25.60;16.97;;;;;;;7.57;71.70;98683.09;1779877;79;20173;-41
2022/11/16 01:46:41;;;;;;;;;;;;;;;7.46;72.07;98679.41;1805873;79;21017;-41
2022/11/16 01:49:12;;;;;;;19.87;15.98;;;;;;;7.49;71.90;98679.27;1804765;79;20158;-41
2022/11/16 01:51:40;;;;;;;23.05;17.20;;;;;;;7.46;72.30;98672.66;1805095;78;21825;-41
2022/11/16 01:54:09;;;;;;;25.92;18.17;;;;;;;7.52;72.19;98672.59;1804818;79;21005;-41
2022/11/16 01:56:38;;;;;;;26.25;17.98;;;;;;;7.52;72.24;98667.77;1805035;79;20937;-41
2022/11/16 01:59:07;;;;;;;21.95;16.80;;;;;;;7.56;72.20;98667.27;1803428;79;21518;-41
2022/11/16 02:01:33;;;;;;;24.77;16.52;;;;;;;7.58;72.08;98667.13;1804691;79;21018;-41
2022/11/16 02:04:00;;;;;;;19.12;15.13;;;;;;;7.61;71.85;98666.41;1804870;79;21291;-41
2022/11/16 02:06:37;;;;;;;20.45;15.65;;;;;;;7.66;71.84;98670.17;1804698;79;20887;-41
2022/11/16 02:12:32;;;;;;;22.93;16.77;;;;;;;7.72;71.61;98668.75;1804649;79;20961;-41
2022/11/16 02:15:27;;;;;;;23.22;17.35;;;;;;;7.70;71.68;98660.22;1804429;79;21004;-41
2022/11/16 02:18:31;;;;;;;20.17;16.67;;;;;;;7.71;71.77;98655.61;1803788;79;21130;-41
2022/11/16 02:21:19;;;;;;;23.60;17.73;;;;;;;7.68;71.52;98657.12;1796717;79;20953;-41
2022/11/16 02:24:17;;;;;;;21.00;16.45;;;;;;;7.66;71.64;98649.94;1804426;79;21551;-41
2022/11/16 02:27:14;;;;;;;23.10;16.40;;;;;;;7.78;71.62;98647.66;1804539;79;21068;-41
2022/11/16 02:29:49;;;;;;;22.42;17.27;;;;;;;7.85;71.50;98647.77;1804724;79;20985;-41
2022/11/16 02:32:38;;;;;;;21.80;17.15;;;;;;;7.83;71.42;98653.55;1804917;79;21078;-41
2022/11/16 02:35:25;;;;;;;26.80;18.17;;;;;;;7.85;71.44;98639.67;1804762;79;20953;-41
2022/11/16 02:38:00;;;;;;;27.65;18.17;;;;;;;7.86;71.33;98630.45;1804826;79;21316;-41
2022/11/16 02:40:30;;;;;;;21.50;16.00;;;;;;;7.85;71.30;98635.63;1804613;79;21017;-41
2022/11/16 02:43:02;;;;;;;15.83;11.85;;;;;;;7.91;71.21;98630.16;1804828;79;21032;-41
2022/11/16 02:45:31;;;;;;;21.85;15.93;;;;;;;7.98;70.89;98635.69;1804628;79;21119;-41
2022/11/16 02:48:07;;;;;;;21.93;17.37;;;;;;;7.97;70.98;98630.64;1804705;79;20902;-41
2022/11/16 02:50:34;;;;;;;24.55;18.23;;;;;;;7.93;71.13;98636.55;1804717;79;21025;-41
2022/11/16 02:53:02;;;;;;;24.07;17.75;;;;;;;7.92;71.27;98629.59;1780237;79;21546;-41
2022/11/16 02:55:31;;;;;;;24.95;18.48;;;;;;;7.92;71.28;98633.07;1780602;79;21258;-41
2022/11/16 02:58:00;;;;;;;22.07;17.67;;;;;;;7.94;71.21;98637.52;1781359;79;21875;-41
2022/11/16 03:00:42;;;;;;;25.20;18.50;;;;;;;8.00;71.16;98638.01;1780733;79;21620;-41
2022/11/16 03:03:30;;;;;;;30.55;18.25;;;;;;;8.06;70.93;98633.31;1804937;79;21026;-41
2022/11/16 03:06:24;;;;;;;25.55;18.67;;;;;;;8.08;70.92;98635.66;1804942;79;21037;-41
2022/11/16 03:09:00;;;;;;;23.05;17.87;;;;;;;8.03;70.99;98631.34;1804969;79;20976;-41
2022/11/16 03:14:16;;;;;;;30.00;19.90;;;;;;;7.92;71.24;98624.97;1784752;79;20973;-41
2022/11/16 03:16:47;;;;;;;30.52;20.27;;;;;;;7.82;71.48;98626.34;1804778;79;21060;-41
2022/11/16 03:19:19;;;;;;;24.72;19.23;;;;;;;7.81;71.65;98628.05;1804662;79;20996;-41
2022/11/16 03:21:55;;;;;;;28.98;19.90;;;;;;;7.83;71.77;98628.48;1804855;79;21029;-41
2022/11/16 03:24:23;;;;;;;29.40;20.92;;;;;;;7.81;71.94;98626.70;1804658;79;21231;-41
2022/11/16 03:27:11;;;;;;;29.52;20.15;;;;;;;7.72;72.30;98637.72;1804757;79;21553;-41
2022/11/16 03:29:48;;;;;;;29.23;20.10;;;;;;;7.69;72.63;98629.58;1804628;79;20996;-41
2022/11/16 03:32:46;;;;;;;32.70;20.90;;;;;;;7.66;72.90;98632.97;1804329;79;21029;-41
2022/11/16 03:35:22;;;;;;;35.50;20.90;;;;;;;7.71;72.98;98625.93;1804857;79;20957;-41
2022/11/16 03:37:50;;;;;;;28.17;19.62;;;;;;;7.82;72.92;98614.77;1803888;79;21241;-41
2022/11/16 03:40:17;;;;;;;33.23;21.40;;;;;;;7.86;72.77;98619.66;1805012;79;20922;-41
2022/11/16 03:42:45;;;;;;;35.75;23.60;;;;;;;7.83;72.88;98613.07;1804646;79;20985;-41
2022/11/16 03:45:12;;;;;;;29.18;21.40;;;;;;;7.84;72.96;98611.16;1804743;79;20990;-41
2022/11/16 03:47:40;;;;;;;30.10;20.48;;;;;;;7.81;72.95;98615.91;1804646;79;21484;-41
2022/11/16 03:50:09;;;;;;;32.28;21.05;;;;;;;7.81;72.81;98606.45;1804740;79;23118;-41
2022/11/16 03:52:36;;;;;;;32.83;21.85;;;;;;;7.78;72.79;98605.84;1804981;79;21558;-41
2022/11/16 03:55:04;;;;;;;29.77;21.77;;;;;;;7.76;73.01;98601.36;1804619;79;21029;-41
2022/11/16 03:57:31;;;;;;;29.35;21.60;;;;;;;7.71;73.18;98598.39;1805026;79;21011;-41
2022/11/16 03:59:59;;;;;;;31.82;21.87;;;;;;;7.65;73.36;98597.11;1804708;79;21064;-41
2022/11/16 04:02:27;;;;;;;28.57;21.48;;;;;;;7.65;73.69;98600.41;1804690;79;21119;-41
2022/11/16 04:24:19;;;;;;;31.33;23.98;;;;;;;7.63;73.65;98584.57;1772600;80;21088;-40
2022/11/16 04:29:35;;;;;;;32.50;23.42;;;;;;;7.66;73.74;98575.75;1804969;79;21241;-40
2022/11/16 04:37:51;;;;;;;37.60;23.87;;;;;;;7.57;73.74;98577.12;1813612;79;21591;-40
2022/11/16 04:40:25;;;;;;;35.88;25.20;;;;;;;7.63;73.84;98573.00;1813400;79;20937;-40
2022/11/16 04:43:00;;;;;;;34.08;24.67;;;;;;;7.64;73.75;98574.00;1781930;79;21857;-40
2022/11/16 04:48:17;;;;;;;39.15;26.10;;;;;;;7.63;73.88;98570.30;1813736;79;20968;-40
2022/11/16 04:50:44;;;;;;;35.48;24.90;;;;;;;7.58;73.85;98570.59;1813608;79;21021;-40
2022/11/16 04:53:11;;;;;;;34.13;24.85;;;;;;;7.57;73.75;98564.41;1813734;79;21538;-40
2022/11/16 04:55:49;;;;;;;41.75;25.97;;;;;;;7.56;73.59;98562.85;1813688;79;21198;-40
2022/11/16 04:58:16;;;;;;;40.25;26.87;;;;;;;7.54;73.69;98565.71;1813555;79;20973;-40
2022/11/16 05:00:43;;;;;;;39.05;25.70;;;;;;;7.51;73.76;98561.02;1813781;79;20948;-40
2022/11/16 05:03:11;;;;;;;39.92;27.77;;;;;;;7.46;73.92;98571.53;1813643;79;21592;-40
2022/11/16 05:05:38;;;;;;;43.38;27.17;;;;;;;7.42;74.07;98569.34;1813689;79;20909;-40
2022/11/16 05:08:07;;;;;;;41.83;28.30;;;;;;;7.40;74.00;98559.50;1813934;78;21475;-40
2022/11/16 05:10:35;;;;;;;43.08;28.85;;;;;;;7.40;74.00;98558.14;1813720;79;20929;-40
2022/11/16 05:13:03;;;;;;;43.98;30.02;;;;;;;7.40;74.07;98553.54;1813782;78;21003;-40
2022/11/16 05:15:30;;;;;;;45.98;29.07;;;;;;;7.32;74.07;98557.22;1813786;79;20973;-40
2022/11/16 05:17:58;;;;;;;47.62;29.98;;;;;;;7.26;74.33;98564.03;1813749;79;21024;-40
2022/11/16 05:24:32;;;;;;;43.55;28.80;;;;;;;7.26;74.49;98562.69;1813878;79;21010;-40
2022/11/16 05:25:40;;;;;;;49.00;29.20;;;;;;;7.26;74.45;98564.03;1809503;79;20933;-40
2022/11/16 05:28:08;;;;;;;46.20;29.92;;;;;;;7.33;74.64;98557.44;1813882;79;20897;-40
2022/11/16 05:30:38;;;;;;;;;;;;;;;7.35;74.81;98544.39;1816711;78;20961;-40
2022/11/16 05:33:05;;;;;;;44.13;28.52;;;;;;;7.40;74.65;98550.84;1813977;79;21150;-40
2022/11/16 23:04:47;;;;;;;2.33;1.20;;;;;;;3.57;78.23;98418.05;1829310;78;22701;-40
2022/11/16 23:07:13;;;;;;;1.40;1.30;;;;;;;3.61;77.63;98415.70;1792774;79;20959;-40
2022/11/16 23:09:40;;;;;;;1.42;1.32;;;;;;;3.56;76.61;98417.81;1784638;79;21138;-40
2022/11/16 23:17:40;;;;;;;1.25;1.15;;;;;;;3.45;76.18;98404.08;1784657;80;20963;-40
2022/11/16 23:28:25;;;;;;;1.77;1.62;;;;;;;3.46;75.43;98405.66;1803060;79;20950;-40
2022/11/16 23:30:52;;;;;;;1.80;1.52;;;;;;;3.41;75.39;98406.66;1802916;79;21449;-40
2022/11/16 23:33:42;;;;;;;1.67;1.55;;;;;;;3.41;75.01;98407.21;1803033;79;21533;-40
2022/11/16 23:35:47;;;;;;;1.87;1.40;;;;;;;3.42;74.72;98404.77;1802697;79;21221;-40
2022/11/16 23:38:14;;;;;;;2.08;1.80;;;;;;;3.43;74.71;98407.12;1803058;79;21638;-40
2022/11/16 23:40:41;;;;;;;1.90;1.70;;;;;;;3.37;74.39;98402.30;1803059;79;21057;-40
2022/11/16 23:45:54;;;;;;;2.00;1.80;;;;;;;3.22;74.61;98400.29;1777024;79;21080;-40
2022/11/16 23:48:21;;;;;;;2.20;1.60;;;;;;;3.23;74.84;98409.89;1803158;79;21136;-40
2022/11/16 23:50:49;;;;;;;1.85;1.67;;;;;;;3.28;74.75;98406.44;1803210;78;20917;-40
2022/11/16 23:53:16;;;;;;;2.95;2.25;;;;;;;3.33;74.78;98408.90;1803123;79;20961;-40
2022/11/16 23:55:43;;;;;;;2.33;2.12;;;;;;;3.33;74.59;98412.13;1803082;79;20974;-40
2022/11/16 23:58:14;;;;;;;2.50;2.00;;;;;;;3.29;74.56;98414.67;1803252;79;21061;-40
